Time;durP1;ratioP1;P1;durP2;ratioP2;P2;SDS_P1;SDS_P2;PMS_P1;PMS_P2;Temp;Humidity;BMP_temperature;BMP_pressure;BME280_temperature;BME280_humidity;BME280_pressure;Samples;Min_cycle;Max_cycle;Signal;HPM_P1;HPM_P2
2023/04/18 00:02:25;;;;;;;42.30;24.33;;;3.50;99.90;4.50;94335.00;;;;7401571;19;20220;-76
2023/04/18 00:04:53;;;;;;;44.73;25.57;;;3.50;99.90;4.40;94357.00;;;;7402718;19;20655;-74
2023/04/18 00:07:36;;;;;;;51.73;25.80;;;3.60;1.00;4.40;94363.00;;;;7398183;19;20153;-75
2023/04/18 00:10:11;;;;;;;44.07;24.57;;;3.60;1.00;4.50;94338.00;;;;7401860;19;20120;-74
2023/04/18 00:12:38;;;;;;;44.77;25.70;;;3.60;1.00;4.60;94362.00;;;;7405123;19;20129;-75
2023/04/18 00:15:13;;;;;;;45.60;25.57;;;3.60;1.00;4.50;94360.00;;;;7402101;19;20140;-74
2023/04/18 00:17:47;;;;;;;41.27;24.90;;;3.70;1.00;4.60;94339.00;;;;7401722;19;20447;-74
2023/04/18 00:20:21;;;;;;;43.40;24.07;;;3.60;1.00;4.50;94353.00;;;;7402933;19;20140;-75
2023/04/18 00:22:48;;;;;;;42.70;24.40;;;3.70;1.00;4.50;94346.00;;;;7403161;19;20152;-77
2023/04/18 00:25:21;;;;;;;41.87;25.17;;;3.70;1.00;4.60;94360.00;;;;7400913;19;20137;-73
2023/04/18 00:27:48;;;;;;;40.47;25.60;;;3.70;1.00;4.60;94355.00;;;;7402277;19;20133;-76
2023/04/18 00:30:22;;;;;;;39.07;23.23;;;3.70;1.00;4.60;94335.00;;;;7403783;19;20478;-75
2023/04/18 00:32:49;;;;;;;45.03;25.60;;;3.70;1.00;4.50;94345.00;;;;7402198;19;20132;-74
2023/04/18 00:35:24;;;;;;;45.23;25.23;;;3.80;1.00;4.60;94347.00;;;;7402612;19;20146;-77
2023/04/18 00:37:51;;;;;;;39.70;24.53;;;3.80;1.00;4.60;94335.00;;;;7401831;19;20197;-76
2023/04/18 00:40:24;;;;;;;35.60;22.97;;;3.80;1.00;4.60;94321.00;;;;7402327;19;20121;-76
2023/04/18 00:42:59;;;;;;;43.67;27.60;;;3.80;1.00;4.70;94341.00;;;;7403950;19;20125;-76
2023/04/18 00:45:32;;;;;;;45.83;26.37;;;3.80;1.00;4.60;94333.00;;;;7398947;19;20204;-76
2023/04/18 00:48:00;;;;;;;40.57;26.43;;;3.80;1.00;4.70;94336.00;;;;7400945;19;20152;-75
2023/04/18 00:50:36;;;;;;;40.70;25.00;;;3.80;1.00;4.60;94318.00;;;;7401236;19;20188;-74
2023/04/18 00:53:04;;;;;;;48.47;25.47;;;3.80;1.00;4.60;94330.00;;;;7402414;19;20153;-74
2023/04/18 00:55:39;;;;;;;47.60;25.73;;;3.80;99.90;4.60;94345.00;;;;7401639;19;20208;-74
2023/04/18 00:58:06;;;;;;;42.20;26.23;;;3.80;99.90;4.50;94331.00;;;;7401846;19;20148;-77
2023/04/18 01:00:41;;;;;;;40.37;25.10;;;3.80;99.90;4.70;94345.00;;;;7403769;19;20132;-76
2023/04/18 01:03:16;;;;;;;37.97;24.27;;;3.70;99.90;4.70;94333.00;;;;7395344;19;20200;-76
2023/04/18 01:06:00;;;;;;;39.37;24.90;;;3.70;99.90;4.50;94297.00;;;;7397270;19;20610;-76
2023/04/18 01:08:28;;;;;;;42.13;25.87;;;3.80;99.90;4.50;94345.00;;;;7387735;19;20611;-76
2023/04/18 01:11:01;;;;;;;40.63;25.33;;;3.80;99.90;4.60;94310.00;;;;7399518;19;20161;-76
2023/04/18 01:13:34;;;;;;;47.93;27.00;;;3.70;99.90;4.60;94305.00;;;;7400240;19;20129;-75
2023/04/18 01:16:08;;;;;;;40.87;24.70;;;3.80;99.90;4.60;94310.00;;;;7398878;19;20619;-76
2023/04/18 01:18:42;;;;;;;39.77;23.50;;;3.80;99.90;4.60;94324.00;;;;7399049;19;20218;-75
2023/04/18 01:21:09;;;;;;;39.37;25.13;;;3.80;99.90;4.60;94295.00;;;;7398350;19;20136;-75
2023/04/18 01:23:43;;;;;;;43.40;25.40;;;3.80;99.90;4.60;94313.00;;;;7399162;19;20592;-75
2023/04/18 01:26:10;;;;;;;40.47;25.63;;;3.70;99.90;4.60;94283.00;;;;7398475;19;20133;-75
2023/04/18 01:28:44;;;;;;;39.00;24.43;;;3.70;99.90;4.40;94311.00;;;;7399432;19;20121;-75
2023/04/18 01:31:11;;;;;;;37.80;23.67;;;3.80;99.90;4.50;94305.00;;;;7399562;19;20176;-76
2023/04/18 01:33:45;;;;;;;38.50;24.37;;;3.70;99.90;4.50;94287.00;;;;7399025;19;20172;-76
2023/04/18 01:36:13;;;;;;;39.50;24.20;;;3.70;99.90;4.60;94274.00;;;;7398898;19;20144;-75
2023/04/18 01:38:46;;;;;;;37.97;23.33;;;3.80;99.90;4.70;94269.00;;;;7399806;19;20140;-75
2023/04/18 01:41:13;;;;;;;39.50;25.33;;;3.80;99.90;4.60;94278.00;;;;7399238;19;20223;-75
2023/04/18 01:43:47;;;;;;;40.73;24.47;;;3.80;99.90;4.60;94280.00;;;;7398048;19;20172;-77
2023/04/18 01:46:15;;;;;;;44.20;24.83;;;3.70;99.90;4.50;94301.00;;;;7397376;19;20133;-75
2023/04/18 01:48:48;;;;;;;40.33;25.10;;;3.70;99.90;4.50;94300.00;;;;7399118;19;20139;-75
2023/04/18 01:51:17;;;;;;;42.47;25.33;;;3.70;99.90;4.60;94297.00;;;;7397653;19;20155;-75
2023/04/18 01:53:44;;;;;;;39.57;24.70;;;3.80;99.90;4.50;94251.00;;;;7398555;19;20636;-75
2023/04/18 01:56:17;;;;;;;39.10;24.50;;;3.80;99.90;4.50;94287.00;;;;7397201;19;20153;-75
2023/04/18 01:58:51;;;;;;;39.10;23.97;;;3.80;99.90;4.60;94290.00;;;;7396765;19;20149;-76
2023/04/18 02:01:25;;;;;;;37.53;24.80;;;3.80;99.90;4.60;94286.00;;;;7396844;19;20129;-75
2023/04/18 02:03:59;;;;;;;39.73;24.93;;;3.70;99.90;4.60;94262.00;;;;7396317;19;20137;-75
2023/04/18 02:06:32;;;;;;;39.10;23.17;;;3.80;99.90;4.50;94253.00;;;;7397161;19;20173;-75
2023/04/18 02:09:06;;;;;;;38.60;24.23;;;3.80;99.90;4.50;94276.00;;;;7399441;19;20595;-75
2023/04/18 02:11:40;;;;;;;39.00;25.00;;;3.80;99.90;4.50;94287.00;;;;7398167;19;20462;-75
2023/04/18 02:14:14;;;;;;;39.00;24.37;;;3.80;99.90;4.50;94271.00;;;;7398930;19;20621;-75
2023/04/18 02:16:42;;;;;;;41.33;23.87;;;3.80;99.90;4.60;94272.00;;;;7397942;19;20129;-75
2023/04/18 02:19:15;;;;;;;42.57;24.50;;;3.80;99.90;4.50;94252.00;;;;7397368;19;20166;-75
2023/04/18 02:21:43;;;;;;;41.40;25.53;;;3.80;99.90;4.50;94260.00;;;;7397307;19;20628;-75
2023/04/18 02:24:18;;;;;;;42.57;25.13;;;3.80;99.90;4.60;94280.00;;;;7396559;19;20132;-75
2023/04/18 02:26:45;;;;;;;36.03;23.27;;;3.80;99.90;4.50;94277.00;;;;7396655;19;20513;-75
2023/04/18 02:29:18;;;;;;;41.93;24.77;;;3.80;99.90;4.50;94264.00;;;;7398278;19;20173;-75
2023/04/18 02:31:52;;;;;;;43.33;25.30;;;3.80;99.90;4.50;94281.00;;;;7396355;19;20615;-75
2023/04/18 02:34:26;;;;;;;38.90;24.77;;;3.80;99.90;4.50;94278.00;;;;7394959;19;20151;-75
2023/04/18 02:36:53;;;;;;;43.57;25.77;;;3.80;99.90;4.60;94258.00;;;;7396216;19;20156;-75
2023/04/18 02:39:27;;;;;;;40.30;24.57;;;3.80;99.90;4.50;94251.00;;;;7395455;19;20131;-75
2023/04/18 02:41:54;;;;;;;40.50;26.40;;;3.80;99.90;4.30;94278.00;;;;7396476;19;20612;-75
2023/04/18 02:44:22;;;;;;;44.70;24.90;;;3.70;99.90;4.50;94286.00;;;;7396654;19;20499;-75
2023/04/18 02:46:55;;;;;;;43.03;24.33;;;3.80;99.90;4.50;94267.00;;;;7397754;19;20133;-75
2023/04/18 02:49:22;;;;;;;46.80;25.37;;;3.70;99.90;4.50;94253.00;;;;7395903;19;20576;-75
2023/04/18 02:51:56;;;;;;;42.77;24.83;;;3.80;99.90;4.50;94251.00;;;;7396694;19;20148;-75
2023/04/18 02:54:23;;;;;;;42.10;25.13;;;3.80;99.90;4.50;94279.00;;;;7396596;19;20136;-75
2023/04/18 02:56:57;;;;;;;40.90;25.67;;;3.80;99.90;4.40;94288.00;;;;7396976;19;20140;-74
2023/04/18 02:59:24;;;;;;;45.60;25.43;;;3.80;99.90;4.30;94252.00;;;;7396399;19;20145;-75
2023/04/18 03:02:01;;;;;;;41.20;24.37;;;3.80;99.90;4.40;94281.00;;;;7394242;19;20137;-75
2023/04/18 03:04:41;;;;;;;50.83;24.67;;;3.80;99.90;4.60;94249.00;;;;7395158;19;20188;-75
2023/04/18 03:07:15;;;;;;;57.93;24.63;;;3.80;99.90;4.50;94249.00;;;;7391306;19;20204;-75
2023/04/18 03:09:42;;;;;;;45.93;25.23;;;3.70;99.90;4.40;94265.00;;;;7396208;19;20169;-75
2023/04/18 03:12:16;;;;;;;50.80;24.87;;;3.70;99.90;4.40;94222.00;;;;7395154;19;20145;-74
2023/04/18 03:14:43;;;;;;;46.17;25.03;;;3.70;99.90;4.50;94269.00;;;;7395624;19;20141;-75
2023/04/18 03:17:17;;;;;;;47.60;26.20;;;3.70;99.90;4.50;94252.00;;;;7396779;19;20149;-75
2023/04/18 03:19:51;;;;;;;46.07;25.90;;;3.70;99.90;4.50;94272.00;;;;7396031;19;20152;-75
2023/04/18 03:22:25;;;;;;;42.47;25.13;;;3.70;99.90;4.40;94269.00;;;;7395331;19;20145;-75
2023/04/18 03:24:52;;;;;;;50.63;25.33;;;3.70;99.90;4.30;94254.00;;;;7394308;19;20180;-75
2023/04/18 03:27:26;;;;;;;42.63;24.10;;;3.70;99.90;4.30;94248.00;;;;7397657;19;20137;-75
2023/04/18 03:29:53;;;;;;;47.37;25.53;;;3.70;99.90;4.40;94259.00;;;;7395307;19;20478;-75
2023/04/18 03:32:27;;;;;;;42.93;24.67;;;3.70;99.90;4.40;94213.00;;;;7395670;19;20227;-75
2023/04/18 03:34:54;;;;;;;39.80;23.40;;;3.70;99.90;4.50;94250.00;;;;7394760;19;20133;-75
2023/04/18 03:37:28;;;;;;;46.87;26.40;;;3.60;99.90;4.50;94250.00;;;;7396252;19;20128;-75
2023/04/18 03:40:04;;;;;;;45.80;25.27;;;3.70;99.90;4.30;94253.00;;;;7391912;19;20157;-75
2023/04/18 03:42:37;;;;;;;54.03;26.93;;;3.60;99.90;4.40;94235.00;;;;7395769;19;20150;-75
2023/04/18 03:45:05;;;;;;;50.73;25.30;;;3.60;99.90;4.30;94256.00;;;;7395237;19;20174;-75
2023/04/18 03:47:38;;;;;;;51.00;25.70;;;3.60;99.90;4.30;94246.00;;;;7395172;19;20220;-75
2023/04/18 03:50:06;;;;;;;78.93;26.00;;;3.60;99.90;4.30;94222.00;;;;7395561;19;20603;-74
2023/04/18 03:52:39;;;;;;;69.73;26.77;;;3.60;99.90;4.30;94263.00;;;;7400042;19;20153;-75
2023/04/18 03:55:13;;;;;;;88.83;28.67;;;3.60;99.90;4.20;94239.00;;;;7402973;19;20488;-75
2023/04/18 03:57:43;;;;;;;44.83;25.53;;;3.60;99.90;4.30;94242.00;;;;7402081;19;20148;-75
2023/04/18 04:00:17;;;;;;;61.70;26.90;;;3.50;99.90;4.30;94238.00;;;;7402437;19;20145;-75
2023/04/18 04:02:51;;;;;;;47.87;26.47;;;3.50;99.90;4.20;94263.00;;;;7397891;19;20180;-75
2023/04/18 04:05:31;;;;;;;63.83;26.07;;;3.60;99.90;4.20;94238.00;;;;7396242;19;20152;-75
2023/04/18 04:08:05;;;;;;;64.10;27.33;;;3.50;99.90;4.20;94243.00;;;;7398073;19;20149;-75
2023/04/18 04:10:39;;;;;;;77.07;28.60;;;3.60;99.90;4.20;94243.00;;;;7397875;19;20156;-75
2023/04/18 04:13:07;;;;;;;107.37;26.83;;;3.50;99.90;4.20;94274.00;;;;7396616;19;20133;-75
2023/04/18 04:15:40;;;;;;;63.47;27.13;;;3.50;99.90;4.20;94248.00;;;;7394501;19;20148;-75
2023/04/18 04:18:07;;;;;;;73.43;27.67;;;3.50;99.90;4.20;94249.00;;;;7397707;19;20572;-75
2023/04/18 04:20:44;;;;;;;55.67;26.57;;;3.50;99.90;4.20;94270.00;;;;7398305;19;20599;-75
2023/04/18 04:23:17;;;;;;;101.93;29.73;;;3.40;99.90;4.10;94269.00;;;;7397595;19;20157;-75
2023/04/18 04:25:53;;;;;;;79.07;28.27;;;3.40;99.90;4.10;94258.00;;;;7395367;19;20183;-75
2023/04/18 04:28:22;;;;;;;51.53;26.37;;;3.40;99.90;4.10;94219.00;;;;7397640;19;20185;-74
2023/04/18 04:30:56;;;;;;;59.03;28.50;;;3.40;99.90;4.10;94271.00;;;;7396317;19;20588;-74
2023/04/18 04:33:27;;;;;;;70.90;27.53;;;3.40;99.90;4.10;94284.00;;;;7395035;19;20133;-75
2023/04/18 04:36:00;;;;;;;59.43;27.63;;;3.40;99.90;4.10;94264.00;;;;7392664;19;20730;-75
2023/04/18 04:38:39;;;;;;;59.73;26.63;;;3.30;99.90;4.00;94288.00;;;;7396375;19;20185;-75
2023/04/18 04:41:12;;;;;;;52.17;27.23;;;3.30;99.90;4.00;94284.00;;;;7395807;19;20621;-75
2023/04/18 04:43:51;;;;;;;59.93;28.20;;;3.30;99.90;4.10;94259.00;;;;7400815;19;20557;-75
2023/04/18 04:46:29;;;;;;;56.57;26.60;;;3.30;99.90;4.00;94277.00;;;;7395893;19;20216;-75
2023/04/18 04:49:05;;;;;;;57.53;28.70;;;3.30;99.90;3.90;94253.00;;;;7400880;19;20137;-75
2023/04/18 04:51:39;;;;;;;66.53;28.83;;;3.30;99.90;4.00;94245.00;;;;7400732;19;20164;-75
2023/04/18 04:54:12;;;;;;;186.57;31.87;;;3.20;99.90;3.80;94236.00;;;;7401420;19;20200;-75
2023/04/18 04:56:49;;;;;;;70.50;29.20;;;3.20;99.90;3.90;94270.00;;;;7400295;19;20145;-75
2023/04/18 04:59:22;;;;;;;50.43;29.13;;;3.20;99.90;3.90;94263.00;;;;7396961;19;20145;-74
2023/04/18 05:01:56;;;;;;;69.47;29.67;;;3.20;99.90;3.90;94280.00;;;;7398672;19;20175;-75
2023/04/18 05:04:30;;;;;;;60.17;27.47;;;3.20;99.90;4.00;94290.00;;;;7396738;19;20177;-75
2023/04/18 05:07:04;;;;;;;83.03;30.43;;;3.20;99.90;3.90;94285.00;;;;7397452;19;20145;-75
2023/04/18 05:09:31;;;;;;;63.77;30.13;;;3.20;99.90;3.80;94251.00;;;;7400553;19;20169;-75
2023/04/18 05:12:05;;;;;;;64.93;30.20;;;3.20;99.90;3.80;94282.00;;;;7396275;19;20646;-75
2023/04/18 05:14:38;;;;;;;69.03;30.70;;;3.20;99.90;3.50;94291.00;;;;7400907;19;20153;-75
2023/04/18 05:17:12;;;;;;;63.10;30.13;;;3.20;99.90;3.90;94288.00;;;;7398313;19;20129;-74
2023/04/18 05:19:46;;;;;;;76.90;30.20;;;3.20;99.90;4.00;94295.00;;;;7400118;19;20153;-73
2023/04/18 05:22:14;;;;;;;123.27;33.37;;;3.20;99.90;4.00;94271.00;;;;7399769;19;20136;-75
2023/04/18 05:24:47;;;;;;;132.33;31.60;;;3.20;99.90;4.00;94265.00;;;;7399301;19;20141;-73
2023/04/18 05:27:15;;;;;;;169.27;31.83;;;3.20;99.90;3.90;94288.00;;;;7397888;19;20145;-72
2023/04/18 05:29:49;;;;;;;68.70;29.30;;;3.20;99.90;3.80;94286.00;;;;7398642;19;20161;-73
2023/04/18 05:32:22;;;;;;;70.50;29.70;;;3.10;99.90;3.80;94301.00;;;;7398346;19;20511;-72
2023/04/18 05:34:56;;;;;;;60.50;28.53;;;3.10;99.90;3.90;94286.00;;;;7397325;19;20518;-72
2023/04/18 05:37:30;;;;;;;70.50;29.27;;;3.10;99.90;3.80;94286.00;;;;7399009;19;20154;-77
2023/04/18 05:40:05;;;;;;;161.63;34.37;;;3.20;99.90;3.80;94266.00;;;;7381037;19;20607;-76
2023/04/18 05:42:39;;;;;;;56.50;28.53;;;3.20;99.90;3.90;94240.00;;;;7375711;19;20187;-76
2023/04/18 05:45:13;;;;;;;56.17;28.93;;;3.20;99.90;3.90;94250.00;;;;7383054;19;20588;-75
2023/04/18 05:47:47;;;;;;;59.93;28.67;;;3.20;99.90;4.00;94265.00;;;;7383906;19;20129;-76
2023/04/18 05:50:22;;;;;;;59.00;27.67;;;3.20;99.90;4.00;94287.00;;;;7383233;19;20148;-77
2023/04/18 05:53:09;;;;;;;57.83;27.47;;;3.30;99.90;4.20;94250.00;;;;7381990;19;20151;-76
2023/04/18 05:55:45;;;;;;;53.23;27.17;;;3.40;99.90;4.20;94301.00;;;;7381894;19;20215;-74
2023/04/18 05:58:18;;;;;;;61.63;29.43;;;3.50;99.90;4.30;94222.00;;;;7382698;19;20148;-76
2023/04/18 06:00:47;;;;;;;54.53;27.37;;;3.40;99.90;4.30;94307.00;;;;7381689;19;20174;-76
2023/04/18 06:03:27;;;;;;;61.07;26.63;;;3.50;99.90;4.20;94251.00;;;;7383078;19;20212;-76
2023/04/18 06:06:05;;;;;;;52.97;29.87;;;3.40;99.90;4.20;94283.00;;;;7381664;19;20204;-76
2023/04/18 06:08:39;;;;;;;49.73;28.43;;;3.40;99.90;4.10;94288.00;;;;7379331;19;20140;-76
2023/04/18 06:11:07;;;;;;;49.57;26.57;;;3.40;99.90;4.10;94314.00;;;;7380681;19;20520;-76
2023/04/18 06:13:42;;;;;;;73.00;28.37;;;3.40;99.90;4.10;94316.00;;;;7383455;19;20136;-77
2023/04/18 06:16:10;;;;;;;52.37;27.23;;;3.30;99.90;4.00;94288.00;;;;7379243;19;20166;-74
2023/04/18 06:18:44;;;;;;;106.53;28.07;;;3.30;99.90;4.10;94329.00;;;;7380555;19;20324;-74
2023/04/18 06:21:12;;;;;;;78.27;30.43;;;3.30;99.90;4.20;94308.00;;;;7381118;19;20163;-77
2023/04/18 06:23:46;;;;;;;50.80;27.63;;;3.30;99.90;4.20;94290.00;;;;7382373;19;20156;-77
2023/04/18 06:26:13;;;;;;;224.53;33.37;;;3.30;99.90;4.00;94338.00;;;;7382785;19;20133;-77
2023/04/18 06:28:42;;;;;;;159.70;30.47;;;3.30;99.90;4.20;94301.00;;;;7381289;19;20608;-77
2023/04/18 06:31:17;;;;;;;83.03;28.60;;;3.30;99.90;4.20;94325.00;;;;7380898;19;20481;-74
2023/04/18 06:33:52;;;;;;;41.43;25.47;;;3.40;99.90;4.30;94303.00;;;;7382538;19;20184;-77
2023/04/18 06:36:42;;;;;;;87.00;27.77;;;3.50;99.90;4.30;94272.00;;;;7382235;19;20506;-75
2023/04/18 06:39:23;;;;;;;48.03;25.93;;;3.60;99.90;4.60;94273.00;;;;7380573;19;20143;-75
2023/04/18 06:41:57;;;;;;;52.27;26.10;;;3.70;99.90;4.70;94308.00;;;;7380916;19;20615;-75
2023/04/18 06:44:24;;;;;;;41.77;26.60;;;3.80;99.90;4.70;94301.00;;;;7381175;19;20482;-75
2023/04/18 06:46:58;;;;;;;49.77;25.00;;;3.80;99.90;4.80;94261.00;;;;7380818;19;20140;-75
2023/04/18 06:49:32;;;;;;;43.40;23.73;;;3.90;99.90;4.80;94317.00;;;;7380690;19;20155;-75
2023/04/18 06:52:06;;;;;;;47.00;23.47;;;3.90;32.90;4.60;94312.00;;;;7381111;19;20480;-74
2023/04/18 06:54:34;;;;;;;44.97;23.43;;;3.90;1.00;4.70;94334.00;;;;7381826;19;20156;-75
2023/04/18 06:57:08;;;;;;;43.87;23.63;;;4.00;1.00;4.70;94346.00;;;;7380959;19;20148;-74
2023/04/18 06:59:36;;;;;;;37.73;24.17;;;4.00;1.00;4.70;94325.00;;;;7379220;19;20161;-74
2023/04/18 07:02:10;;;;;;;38.57;24.07;;;4.00;1.00;4.70;94337.00;;;;7379299;19;20201;-74
2023/04/18 07:04:43;;;;;;;36.47;22.67;;;4.00;1.00;4.70;94335.00;;;;7379927;19;20184;-74
2023/04/18 07:07:18;;;;;;;36.77;21.40;;;3.90;99.90;4.70;94324.00;;;;7380431;19;20149;-75
2023/04/18 07:09:52;;;;;;;30.43;21.27;;;3.90;99.90;4.70;94326.00;;;;7380232;19;20136;-76
2023/04/18 07:12:27;;;;;;;33.67;22.73;;;3.90;99.90;4.70;94336.00;;;;7377505;19;20133;-75
2023/04/18 07:14:54;;;;;;;35.57;21.20;;;3.90;99.90;4.80;94350.00;;;;7380082;19;20161;-75
2023/04/18 07:17:29;;;;;;;35.53;23.40;;;3.90;99.90;4.70;94311.00;;;;7378939;19;20148;-74
2023/04/18 07:19:57;;;;;;;34.33;21.83;;;3.90;99.90;4.80;94315.00;;;;7380099;19;20138;-75
2023/04/18 07:22:30;;;;;;;32.80;22.83;;;4.00;99.90;4.80;94333.00;;;;7379520;19;20154;-75
2023/04/18 07:24:58;;;;;;;38.70;22.30;;;4.00;99.90;4.70;94341.00;;;;7379871;19;20231;-75
2023/04/18 07:27:35;;;;;;;38.37;23.37;;;4.10;99.90;4.90;94336.00;;;;7385015;19;20197;-76
2023/04/18 07:30:04;;;;;;;36.77;22.17;;;4.10;99.90;5.00;94338.00;;;;7385162;19;20152;-74
2023/04/18 07:32:39;;;;;;;36.60;21.90;;;4.20;99.90;5.10;94336.00;;;;7385048;19;20155;-76
2023/04/18 07:35:07;;;;;;;30.73;21.67;;;4.20;99.90;5.30;94342.00;;;;7385106;19;20490;-75
2023/04/18 07:37:41;;;;;;;33.07;20.40;;;4.30;99.90;5.20;94303.00;;;;7386105;19;20133;-75
2023/04/18 07:40:09;;;;;;;35.47;20.80;;;4.40;99.90;5.10;94354.00;;;;7382326;19;20509;-76
2023/04/18 07:42:42;;;;;;;30.40;19.93;;;4.50;99.90;5.20;94346.00;;;;7385241;19;20128;-76
2023/04/18 07:45:16;;;;;;;31.93;21.43;;;4.50;99.90;5.30;94354.00;;;;7384355;19;20144;-75
2023/04/18 07:47:51;;;;;;;28.53;19.57;;;4.50;47.40;5.30;94322.00;;;;7385372;19;20500;-75
2023/04/18 07:50:26;;;;;;;32.60;20.97;;;4.60;1.00;5.40;94358.00;;;;7387387;19;20128;-75
2023/04/18 07:52:53;;;;;;;30.93;20.60;;;4.50;1.00;5.50;94331.00;;;;7386001;19;20840;-74
2023/04/18 07:55:28;;;;;;;29.53;19.30;;;4.50;1.00;5.40;94363.00;;;;7386862;19;20133;-75
2023/04/18 07:58:01;;;;;;;29.67;20.50;;;4.50;1.00;5.50;94341.00;;;;7385015;19;20133;-74
2023/04/18 08:00:41;;;;;;;31.73;20.77;;;4.50;1.00;5.50;94336.00;;;;7383098;19;20148;-77
2023/04/18 08:03:10;;;;;;;28.87;20.23;;;4.50;1.00;5.50;94345.00;;;;7385012;19;20666;-76
2023/04/18 08:05:52;;;;;;;30.53;20.70;;;4.50;1.00;5.40;94346.00;;;;7384766;19;20140;-77
2023/04/18 08:08:25;;;;;;;31.43;20.03;;;4.50;1.00;5.30;94359.00;;;;7379678;19;20145;-78
2023/04/18 08:11:00;;;;;;;31.00;20.43;;;4.50;1.00;5.30;94365.00;;;;7384294;19;20138;-77
2023/04/18 08:13:27;;;;;;;30.93;19.70;;;4.50;1.00;5.30;94366.00;;;;7384710;19;20195;-77
2023/04/18 08:16:01;;;;;;;30.77;19.37;;;4.40;1.00;5.20;94368.00;;;;7384474;19;20164;-77
2023/04/18 08:18:28;;;;;;;27.83;20.00;;;4.40;1.00;5.10;94377.00;;;;7385078;19;20136;-78
2023/04/18 08:20:56;;;;;;;32.07;20.03;;;4.40;1.00;5.30;94381.00;;;;7385511;19;20128;-77
2023/04/18 08:23:29;;;;;;;31.13;20.17;;;4.40;1.00;5.30;94377.00;;;;7382550;19;20604;-78
2023/04/18 08:25:57;;;;;;;27.33;19.80;;;4.50;1.00;5.30;94379.00;;;;7384140;19;20165;-78
2023/04/18 08:28:31;;;;;;;29.03;19.93;;;4.50;1.00;5.50;94372.00;;;;7385888;19;20136;-78
2023/04/18 08:30:58;;;;;;;29.63;20.27;;;4.50;1.00;5.40;94378.00;;;;7384326;19;20155;-79
2023/04/18 08:33:31;;;;;;;31.47;21.83;;;4.60;1.00;5.50;94308.00;;;;7384101;19;20614;-76
2023/04/18 08:36:06;;;;;;;32.53;20.83;;;4.70;1.00;5.60;94383.00;;;;7384606;19;20129;-76
2023/04/18 08:38:40;;;;;;;35.73;19.97;;;4.70;1.00;5.60;94373.00;;;;7382312;19;20148;-76
2023/04/18 08:41:08;;;;;;;29.20;19.50;;;4.80;1.00;5.80;94389.00;;;;7384815;19;20565;-76
2023/04/18 08:43:37;;;;;;;31.13;20.33;;;4.90;1.00;6.00;94363.00;;;;7383667;19;20149;-79
2023/04/18 08:46:11;;;;;;;33.97;20.83;;;5.00;1.00;6.10;94363.00;;;;7383892;19;20634;-78
2023/04/18 08:48:40;;;;;;;29.13;19.43;;;5.20;1.00;6.30;94380.00;;;;7384728;19;20155;-78
2023/04/18 08:51:14;;;;;;;29.17;19.03;;;5.20;99.90;6.30;94356.00;;;;7384584;19;20128;-75
2023/04/18 08:53:43;;;;;;;27.47;19.80;;;5.30;99.90;6.60;94348.00;;;;7383435;19;20160;-77
2023/04/18 08:56:21;;;;;;;29.37;19.57;;;5.50;99.90;7.00;94376.00;;;;7384572;19;20156;-75
2023/04/18 08:58:49;;;;;;;31.63;19.30;;;5.70;99.90;7.40;94376.00;;;;7384107;19;20553;-77
2023/04/18 09:01:55;;;;;;;28.03;18.63;;;6.00;1.00;7.40;94375.00;;;;7383529;19;20163;-76
2023/04/18 09:04:47;;;;;;;24.17;17.73;;;6.30;1.00;7.70;94383.00;;;;7384799;19;20156;-77
2023/04/18 09:07:29;;;;;;;27.00;17.30;;;6.50;99.90;7.80;94361.00;;;;7378404;19;20121;-77
2023/04/18 09:09:57;;;;;;;28.03;16.80;;;6.70;99.90;7.80;94388.00;;;;7385651;19;20128;-75
2023/04/18 09:12:31;;;;;;;24.50;17.67;;;6.90;99.90;7.80;94340.00;;;;7383578;19;20120;-77
2023/04/18 09:15:13;;;;;;;23.00;16.10;;;6.90;1.00;7.50;94378.00;;;;7383211;19;20145;-76
2023/04/18 09:17:52;;;;;;;26.03;16.27;;;6.90;1.00;7.60;94388.00;;;;7383435;19;20140;-74
2023/04/18 09:20:39;;;;;;;20.43;15.27;;;6.80;1.00;7.90;94391.00;;;;7383847;19;20152;-76
2023/04/18 09:23:24;;;;;;;23.77;16.37;;;7.00;1.00;7.60;94391.00;;;;7384005;19;20608;-75
2023/04/18 09:25:52;;;;;;;22.17;15.23;;;6.90;1.00;7.40;94386.00;;;;7382337;19;20480;-74
2023/04/18 09:28:32;;;;;;;20.57;15.77;;;6.80;1.00;7.40;94368.00;;;;7382767;19;21399;-76
2023/04/18 09:31:14;;;;;;;21.13;15.87;;;6.60;1.00;7.30;94339.00;;;;7383809;19;20611;-75
2023/04/18 09:33:55;;;;;;;20.47;15.23;;;6.60;1.00;7.40;94376.00;;;;7384926;19;20125;-75
2023/04/18 09:36:31;;;;;;;22.77;16.30;;;6.60;1.00;7.70;94408.00;;;;7383159;19;23230;-76
2023/04/18 09:39:05;;;;;;;23.17;15.37;;;6.60;1.00;7.50;94371.00;;;;7383710;19;20128;-75
2023/04/18 09:41:39;;;;;;;21.77;16.57;;;6.60;1.00;7.30;94377.00;;;;7383160;19;20696;-75
2023/04/18 09:44:16;;;;;;;22.70;15.83;;;6.50;1.00;7.00;94364.00;;;;7381861;19;20155;-76
2023/04/18 09:46:49;;;;;;;21.87;15.90;;;6.40;1.00;7.10;94394.00;;;;7384309;19;20135;-73
2023/04/18 09:49:24;;;;;;;22.33;16.60;;;6.30;10.60;7.10;94377.00;;;;7382090;19;20141;-75
2023/04/18 09:51:54;;;;;;;22.43;16.87;;;6.30;99.90;7.30;94364.00;;;;7383263;19;20153;-75
2023/04/18 09:54:36;;;;;;;24.40;17.70;;;6.30;99.90;7.40;94406.00;;;;7380237;19;20129;-76
2023/04/18 09:57:13;;;;;;;24.13;17.17;;;6.40;99.90;7.50;94405.00;;;;7382833;19;20500;-75
2023/04/18 09:59:52;;;;;;;23.43;17.37;;;6.40;99.90;7.10;94416.00;;;;7381797;19;20161;-76
2023/04/18 10:02:54;;;;;;;24.70;17.90;;;6.50;13.20;7.40;94381.00;;;;7378024;19;20156;-75
2023/04/18 10:05:35;;;;;;;27.93;18.47;;;6.40;34.00;7.40;94382.00;;;;7381705;19;20128;-76
2023/04/18 10:08:12;;;;;;;23.63;17.60;;;6.40;99.90;7.60;94378.00;;;;7377014;19;20177;-76
2023/04/18 10:10:45;;;;;;;27.27;18.23;;;6.50;65.80;7.50;94373.00;;;;7382446;19;20132;-74
2023/04/18 10:13:20;;;;;;;24.47;16.47;;;6.60;1.00;7.40;94382.00;;;;7381156;19;20165;-77
2023/04/18 10:15:55;;;;;;;23.40;16.90;;;6.70;1.00;7.70;94396.00;;;;7381716;19;20143;-77
2023/04/18 10:18:23;;;;;;;26.57;17.30;;;6.80;1.00;7.90;94408.00;;;;7383467;19;20132;-78
2023/04/18 10:21:02;;;;;;;23.47;16.53;;;6.90;1.00;8.00;94381.00;;;;7382597;19;20494;-78
2023/04/18 10:23:30;;;;;;;28.30;17.30;;;7.00;1.00;7.90;94406.00;;;;7382647;19;20132;-79
2023/04/18 10:26:11;;;;;;;22.80;16.97;;;7.10;1.00;7.60;94382.00;;;;7382387;19;20148;-79
2023/04/18 10:28:57;;;;;;;23.67;16.93;;;7.00;1.00;7.70;94354.00;;;;7382671;19;20152;-79
2023/04/18 10:31:38;;;;;;;22.30;16.47;;;6.90;1.00;7.70;94413.00;;;;7384114;19;20133;-79
2023/04/18 10:34:07;;;;;;;25.40;18.20;;;6.90;1.00;8.00;94395.00;;;;7383170;19;20139;-80
2023/04/18 10:37:04;;;;;;;26.00;18.03;;;6.90;1.00;8.10;94393.00;;;;7382173;19;20160;-81
2023/04/18 10:39:56;;;;;;;28.33;19.60;;;6.90;1.00;8.10;94397.00;;;;7382256;19;20977;-80
2023/04/18 10:42:52;;;;;;;26.53;17.67;;;7.10;1.00;8.10;94404.00;;;;7381462;19;20147;-81
2023/04/18 10:45:22;;;;;;;23.77;17.50;;;7.20;99.90;8.00;94405.00;;;;7382834;19;20133;-80
2023/04/18 10:48:28;;;;;;;24.23;17.47;;;7.30;99.90;8.00;94403.00;;;;7381939;19;20164;-80
2023/04/18 10:51:16;;;;;;;22.93;15.97;;;7.30;99.90;8.30;94390.00;;;;7383054;19;20132;-80
2023/04/18 10:53:59;;;;;;;26.73;17.20;;;7.30;99.90;8.40;94406.00;;;;7383156;19;20155;-81
2023/04/18 10:56:35;;;;;;;21.70;15.67;;;7.40;99.90;8.40;94381.00;;;;7381195;19;20518;-80
2023/04/18 10:59:11;;;;;;;22.23;16.10;;;7.50;99.90;8.70;94368.00;;;;7381398;19;20158;-80
2023/04/18 11:01:53;;;;;;;20.77;14.83;;;7.70;99.90;9.30;94368.00;;;;7386365;19;20156;-79
2023/04/18 11:04:33;;;;;;;20.75;15.57;;;8.00;77.60;9.80;94369.00;;;;7387115;19;20665;-80
2023/04/18 11:07:07;;;;;;;20.33;15.20;;;8.50;1.00;10.00;94374.00;;;;7382782;19;20148;-80
2023/04/18 11:09:34;;;;;;;21.63;13.63;;;8.70;1.00;10.40;94379.00;;;;7387536;19;20604;-80
2023/04/18 11:12:11;;;;;;;24.02;14.98;;;9.10;99.90;10.60;94381.00;;;;7387415;19;20132;-80
2023/04/18 11:14:42;;;;;;;17.98;13.75;;;9.30;99.90;11.00;94374.00;;;;7385874;19;20655;-80
2023/04/18 11:17:26;;;;;;;18.20;13.82;;;9.60;99.90;11.20;94367.00;;;;7388786;19;20495;-80
2023/04/18 11:20:10;;;;;;;20.50;14.30;;;10.00;1.00;11.80;94370.00;;;;7387187;19;20136;-80
2023/04/18 11:22:59;;;;;;;17.42;13.68;;;10.30;1.00;12.30;94363.00;;;;7387836;19;20169;-78
2023/04/18 11:25:35;;;;;;;20.52;12.93;;;10.70;1.00;12.50;94374.00;;;;7388787;19;20140;-78